Time;durP1;ratioP1;P1;durP2;ratioP2;P2;SDS_P1;SDS_P2;PMS_P1;PMS_P2;Temp;Humidity;BMP_temperature;BMP_pressure;BME280_temperature;BME280_humidity;BME280_pressure;Samples;Min_cycle;Max_cycle;Signal;HPM_P1;HPM_P2
2022/01/23 00:00:33;;;;;;;6.07;2.05;;;5.80;99.90;;;;;;5058390;28;20053;-75
2022/01/23 00:03:01;;;;;;;4.15;1.73;;;5.90;99.90;;;;;;5040323;28;20392;-75
2022/01/23 00:05:34;;;;;;;3.13;1.70;;;5.90;99.90;;;;;;5041785;28;20092;-75
2022/01/23 00:08:00;;;;;;;3.35;1.80;;;5.90;99.90;;;;;;5062762;28;20400;-75
2022/01/23 00:10:26;;;;;;;;;;;5.80;99.90;;;;;;5059496;28;20408;-75
2022/01/23 00:13:01;;;;;;;2.22;1.20;;;5.90;99.90;;;;;;5041963;28;19924;-75
2022/01/23 00:18:11;;;;;;;4.40;1.67;;;5.80;99.90;;;;;;5060324;28;20041;-74
2022/01/23 00:20:37;;;;;;;2.20;1.17;;;5.90;99.90;;;;;;5039553;28;20041;-74
2022/01/23 00:23:12;;;;;;;5.60;1.80;;;5.90;99.90;;;;;;5056162;28;20083;-75
2022/01/23 00:31:21;;;;;;;2.92;1.42;;;5.80;99.90;;;;;;5060268;28;20446;-75
2022/01/23 00:33:46;;;;;;;;;;;5.90;99.90;;;;;;5063687;28;20062;-74
2022/01/23 00:36:13;;;;;;;5.80;2.47;;;5.80;99.90;;;;;;5054236;28;20346;-74
2022/01/23 00:38:39;;;;;;;4.75;2.10;;;5.80;99.90;;;;;;5077952;28;20100;-75
2022/01/23 00:41:05;;;;;;;3.35;2.00;;;5.90;99.90;;;;;;5070260;28;20098;-74
2022/01/23 00:43:32;;;;;;;4.57;2.10;;;5.80;99.90;;;;;;5065478;28;20025;-75
2022/01/23 00:49:02;;;;;;;4.63;1.83;;;5.90;99.90;;;;;;5094368;28;20119;-75
2022/01/23 00:51:30;;;;;;;6.22;1.90;;;5.80;99.90;;;;;;5060585;28;20099;-75
2022/01/23 00:53:57;;;;;;;6.40;2.08;;;5.80;99.90;;;;;;5064308;28;20049;-75
2022/01/23 00:56:23;;;;;;;4.22;1.98;;;5.80;99.90;;;;;;5056865;28;20055;-76
2022/01/23 00:58:49;;;;;;;3.00;2.00;;;5.70;99.90;;;;;;5053787;28;20040;-76
2022/01/23 01:01:16;;;;;;;2.20;1.60;;;5.80;99.90;;;;;;5060128;28;20044;-75
2022/01/23 01:03:42;;;;;;;;;;;5.80;99.90;;;;;;5048487;28;20468;-75
2022/01/23 01:06:08;;;;;;;4.40;2.10;;;5.80;99.90;;;;;;5042003;28;19958;-75
2022/01/23 01:08:34;;;;;;;3.53;1.70;;;5.80;99.90;;;;;;5042250;28;20036;-75
2022/01/23 01:35:18;;;;;;;8.48;3.25;;;5.80;99.90;;;;;;5064136;28;20091;-75
2022/01/23 01:37:43;;;;;;;5.40;3.00;;;5.80;99.90;;;;;;5059863;28;20503;-75
2022/01/23 01:40:09;;;;;;;7.63;3.55;;;5.70;99.90;;;;;;5047336;28;20053;-75
2022/01/23 01:42:35;;;;;;;8.77;3.80;;;5.70;99.90;;;;;;5060537;28;20467;-75
2022/01/23 01:45:01;;;;;;;5.65;3.20;;;5.70;99.90;;;;;;5076336;28;20051;-73
2022/01/23 01:47:26;;;;;;;6.22;3.10;;;5.70;99.90;;;;;;5037974;28;20052;-75
2022/01/23 01:49:52;;;;;;;3.80;2.60;;;5.70;99.90;;;;;;5075430;28;20049;-75
2022/01/23 01:52:18;;;;;;;3.33;2.17;;;5.70;99.90;;;;;;5064724;28;20543;-75
2022/01/23 01:54:44;;;;;;;6.05;2.75;;;5.60;99.90;;;;;;5052405;28;20040;-75
2022/01/23 01:57:11;;;;;;;6.00;2.78;;;5.60;99.90;;;;;;5097644;28;20052;-74
2022/01/23 02:10:28;;;;;;;3.72;1.70;;;5.60;99.90;;;;;;5060901;28;20496;-75
2022/01/23 02:24:49;;;;;;;4.95;2.92;;;5.60;99.90;;;;;;5063580;28;20047;-75
2022/01/23 02:52:02;;;;;;;5.20;3.08;;;5.70;99.90;;;;;;5058613;28;20041;-76
2022/01/23 02:57:07;;;;;;;4.35;2.53;;;5.70;99.90;;;;;;5063820;28;20052;-75
2022/01/23 02:59:36;;;;;;;6.20;3.25;;;5.80;99.90;;;;;;5062353;28;20044;-75
2022/01/23 03:04:47;;;;;;;5.38;3.00;;;5.70;99.90;;;;;;5076700;28;20040;-75
2022/01/23 03:09:59;;;;;;;4.15;2.40;;;5.60;99.90;;;;;;5058454;28;20041;-76
2022/01/23 03:26:13;;;;;;;5.57;2.70;;;5.70;99.90;;;;;;5095279;28;20089;-74
2022/01/23 03:29:03;;;;;;;5.55;3.03;;;5.80;99.90;;;;;;5068609;28;20043;-74
2022/01/23 03:31:31;;;;;;;7.00;3.78;;;5.70;99.90;;;;;;5068887;28;20052;-74
2022/01/23 03:33:57;;;;;;;7.65;3.35;;;5.80;99.90;;;;;;5061437;28;20057;-75
2022/01/23 03:36:23;;;;;;;5.97;3.30;;;5.70;99.90;;;;;;5030364;28;20041;-74
2022/01/23 03:38:50;;;;;;;6.95;3.70;;;5.80;99.90;;;;;;5052444;28;20498;-75
2022/01/23 03:41:17;;;;;;;8.90;3.70;;;5.70;99.90;;;;;;5068301;28;20112;-75
2022/01/23 03:43:43;;;;;;;5.53;3.35;;;5.70;99.90;;;;;;5051272;28;20606;-75
2022/01/23 03:51:21;;;;;;;6.38;3.40;;;5.70;99.90;;;;;;5060616;28;20090;-75
2022/01/23 03:53:47;;;;;;;4.93;3.25;;;5.70;99.90;;;;;;5048721;28;20052;-75
2022/01/23 03:56:14;;;;;;;7.00;3.20;;;5.80;99.90;;;;;;5066994;28;20119;-75
2022/01/23 03:58:40;;;;;;;6.43;3.60;;;5.70;99.90;;;;;;5069402;28;20055;-75
2022/01/23 04:01:07;;;;;;;8.13;3.53;;;5.70;99.90;;;;;;5043619;28;20067;-75
2022/01/23 04:03:35;;;;;;;8.30;4.30;;;5.80;99.90;;;;;;5063849;28;20088;-74
2022/01/23 04:06:01;;;;;;;7.97;3.90;;;5.70;99.90;;;;;;5073667;28;20029;-74
2022/01/23 04:08:26;;;;;;;6.85;3.70;;;5.70;99.90;;;;;;5059268;28;20102;-74
2022/01/23 04:10:52;;;;;;;6.68;3.80;;;5.70;99.90;;;;;;5044888;28;20069;-75
2022/01/23 04:15:53;;;;;;;8.50;4.22;;;5.70;99.90;;;;;;5069896;28;20518;-76
2022/01/23 04:45:31;;;;;;;5.75;3.83;;;5.80;99.90;;;;;;5072178;28;20442;-78
2022/01/23 05:04:28;;;;;;;5.68;3.22;;;5.60;99.90;;;;;;5059027;28;20043;-79
2022/01/23 05:07:06;;;;;;;5.35;3.42;;;5.70;99.90;;;;;;5073151;28;20032;-78
2022/01/23 05:09:33;;;;;;;6.05;3.83;;;5.70;99.90;;;;;;5064808;28;20037;-78
2022/01/23 05:12:05;;;;;;;6.07;3.80;;;5.70;99.90;;;;;;5060224;28;20067;-78
2022/01/23 05:14:38;;;;;;;5.15;3.28;;;5.60;99.90;;;;;;5096239;28;20044;-79
2022/01/23 05:17:07;;;;;;;4.35;3.00;;;5.60;99.90;;;;;;5065194;28;20449;-78
2022/01/23 05:19:34;;;;;;;6.78;3.55;;;5.70;99.90;;;;;;5072200;28;20050;-78
2022/01/23 05:25:09;;;;;;;5.25;2.42;;;5.60;99.90;;;;;;5066383;28;20106;-79
2022/01/23 05:27:34;;;;;;;3.80;2.00;;;5.70;99.90;;;;;;5042843;28;20048;-78
2022/01/23 05:30:00;;;;;;;4.03;2.67;;;5.70;99.90;;;;;;5055506;28;20123;-79
2022/01/23 05:32:40;;;;;;;4.43;2.78;;;5.70;99.90;;;;;;5055508;28;20033;-78
2022/01/23 05:35:08;;;;;;;6.65;3.30;;;5.70;99.90;;;;;;5055911;28;20400;-77
2022/01/23 05:37:34;;;;;;;4.38;2.75;;;5.60;99.90;;;;;;5052921;28;20044;-78
2022/01/23 05:40:01;;;;;;;4.30;2.95;;;5.70;99.90;;;;;;5056098;28;20049;-78
2022/01/23 05:42:26;;;;;;;6.22;2.75;;;5.70;99.90;;;;;;5071299;28;20183;-78
2022/01/23 05:44:55;;;;;;;3.67;2.47;;;5.60;99.90;;;;;;5076859;28;20484;-78
2022/01/23 05:47:21;;;;;;;5.03;2.75;;;5.70;99.90;;;;;;5081162;28;20052;-78
2022/01/23 05:49:47;;;;;;;5.00;3.45;;;5.60;99.90;;;;;;5072381;28;20090;-78
2022/01/23 05:52:13;;;;;;;4.63;3.25;;;5.70;99.90;;;;;;5053792;28;20132;-77
2022/01/23 05:54:39;;;;;;;5.32;3.20;;;5.60;99.90;;;;;;5071683;28;20103;-78
2022/01/23 05:57:04;;;;;;;7.65;4.20;;;5.60;99.90;;;;;;5071831;28;20091;-78
2022/01/23 05:59:30;;;;;;;6.10;3.88;;;5.70;99.90;;;;;;5050838;28;20487;-78
2022/01/23 06:01:56;;;;;;;8.40;4.32;;;5.60;99.90;;;;;;5057133;28;20036;-79
2022/01/23 06:04:24;;;;;;;7.57;3.90;;;5.60;99.90;;;;;;5056304;28;20039;-78
2022/01/23 06:06:50;;;;;;;6.60;4.13;;;5.70;99.90;;;;;;5065006;28;20043;-78
2022/01/23 06:09:16;;;;;;;5.10;3.83;;;5.60;99.90;;;;;;5059865;28;20033;-79
2022/01/23 06:11:42;;;;;;;6.18;4.05;;;5.50;99.90;;;;;;5063886;28;20051;-78
2022/01/23 06:14:09;;;;;;;5.60;3.75;;;5.60;99.90;;;;;;5073280;28;20041;-78
2022/01/23 06:16:35;;;;;;;;;;;5.60;99.90;;;;;;5066546;28;20041;-78
2022/01/23 06:19:00;;;;;;;5.10;3.60;;;5.60;99.90;;;;;;5067761;28;19963;-78
2022/01/23 06:21:26;;;;;;;6.78;4.35;;;5.50;99.90;;;;;;5063136;28;20041;-79
2022/01/23 06:24:06;;;;;;;5.75;3.78;;;5.50;99.90;;;;;;5071877;28;20043;-79
2022/01/23 06:26:43;;;;;;;6.38;4.28;;;5.60;99.90;;;;;;5053034;28;20048;-78
2022/01/23 06:29:09;;;;;;;;;;;5.50;99.90;;;;;;5050357;28;20371;-79
2022/01/23 06:31:35;;;;;;;4.70;3.50;;;5.60;99.90;;;;;;5066788;28;19971;-79
2022/01/23 06:34:01;;;;;;;5.93;3.40;;;5.50;99.90;;;;;;5065975;28;20504;-79
2022/01/23 06:36:27;;;;;;;4.57;3.58;;;5.50;99.90;;;;;;5067088;28;20083;-79
2022/01/23 06:38:53;;;;;;;4.38;2.63;;;5.60;99.90;;;;;;5072732;28;20072;-78
2022/01/23 06:41:19;;;;;;;5.32;2.75;;;5.50;99.90;;;;;;5070205;28;20483;-78
2022/01/23 06:43:44;;;;;;;4.97;3.22;;;5.60;99.90;;;;;;5069159;28;20047;-78
2022/01/23 06:46:10;;;;;;;3.83;2.92;;;5.50;99.90;;;;;;5052776;28;20044;-79
2022/01/23 06:48:36;;;;;;;4.82;3.55;;;5.40;99.90;;;;;;5053968;28;20399;-78
2022/01/23 06:51:02;;;;;;;5.10;3.78;;;5.60;99.90;;;;;;5073260;28;20050;-79
2022/01/23 06:53:27;;;;;;;5.00;3.30;;;5.50;99.90;;;;;;5060581;28;20067;-79
2022/01/23 06:55:53;;;;;;;3.90;3.33;;;5.40;99.90;;;;;;5066884;28;20056;-79
2022/01/23 06:58:19;;;;;;;7.40;4.20;;;5.50;99.90;;;;;;5071041;28;20080;-79
2022/01/23 07:00:44;;;;;;;7.28;4.20;;;5.40;99.90;;;;;;5038734;28;20036;-79
2022/01/23 07:03:12;;;;;;;5.10;3.90;;;5.40;99.90;;;;;;5064337;28;20141;-78
2022/01/23 07:05:38;;;;;;;6.57;4.30;;;5.40;99.90;;;;;;5054907;28;20044;-78
2022/01/23 07:08:04;;;;;;;5.88;4.28;;;5.40;99.90;;;;;;5044281;28;20032;-77
2022/01/23 07:10:30;;;;;;;6.57;4.20;;;5.40;99.90;;;;;;5065488;28;20048;-77
2022/01/23 07:12:57;;;;;;;5.68;3.97;;;5.30;99.90;;;;;;5069581;28;20418;-78
2022/01/23 07:15:23;;;;;;;5.18;3.70;;;5.30;99.90;;;;;;5071055;28;20036;-78
2022/01/23 07:17:50;;;;;;;5.65;3.97;;;5.20;99.90;;;;;;5052292;28;20043;-76
2022/01/23 07:20:15;;;;;;;7.60;4.32;;;5.10;99.90;;;;;;5065522;28;20131;-76
2022/01/23 07:22:41;;;;;;;6.28;4.28;;;5.20;99.90;;;;;;5049391;28;20132;-77
2022/01/23 07:25:07;;;;;;;8.02;4.30;;;5.10;99.90;;;;;;5068066;28;20041;-76
2022/01/23 07:27:46;;;;;;;5.65;3.80;;;5.10;99.90;;;;;;5046809;28;20144;-74
2022/01/23 07:30:25;;;;;;;5.22;3.63;;;5.20;99.90;;;;;;5067624;28;20040;-74
2022/01/23 07:32:51;;;;;;;4.03;3.03;;;5.10;99.90;;;;;;5066023;28;20045;-75
2022/01/23 07:35:16;;;;;;;5.35;2.92;;;5.10;99.90;;;;;;5065167;28;20337;-73
2022/01/23 07:37:42;;;;;;;3.60;3.15;;;5.10;99.90;;;;;;5060250;28;20483;-75
2022/01/23 07:40:08;;;;;;;3.72;2.33;;;4.90;99.90;;;;;;5053459;28;20040;-77
2022/01/23 07:42:35;;;;;;;4.93;3.25;;;4.90;99.90;;;;;;5048819;28;20036;-77
2022/01/23 07:45:02;;;;;;;4.68;2.97;;;4.90;99.90;;;;;;5062509;28;20484;-77
2022/01/23 07:47:28;;;;;;;4.22;3.35;;;4.90;99.90;;;;;;5040827;28;20044;-77
2022/01/23 07:49:53;;;;;;;3.20;2.45;;;4.80;99.90;;;;;;5035175;28;20113;-77
2022/01/23 07:52:19;;;;;;;5.80;2.80;;;4.90;99.90;;;;;;5064671;28;20524;-77
2022/01/23 07:54:45;;;;;;;3.88;3.05;;;4.90;99.90;;;;;;5048856;28;20377;-77
2022/01/23 07:57:11;;;;;;;6.00;3.47;;;4.90;99.90;;;;;;5061456;28;20060;-77
2022/01/23 07:59:37;;;;;;;4.13;2.85;;;5.00;99.90;;;;;;5030109;28;20495;-77
2022/01/23 08:02:03;;;;;;;4.03;2.30;;;4.90;99.90;;;;;;5071200;28;20024;-80
2022/01/23 08:04:29;;;;;;;3.78;2.70;;;5.00;99.90;;;;;;5069872;28;20041;-76
2022/01/23 08:07:09;;;;;;;4.93;3.25;;;5.00;99.90;;;;;;5064585;28;20032;-76
2022/01/23 08:09:35;;;;;;;5.32;2.97;;;5.10;99.90;;;;;;5064957;28;20048;-76
2022/01/23 08:12:00;;;;;;;5.90;3.67;;;5.00;99.90;;;;;;5059509;28;20500;-76
2022/01/23 08:14:26;;;;;;;3.67;2.88;;;5.00;99.90;;;;;;5065179;28;20068;-77
2022/01/23 08:16:52;;;;;;;5.28;3.10;;;5.00;99.90;;;;;;5096164;28;20051;-76
2022/01/23 08:19:17;;;;;;;4.70;2.67;;;5.10;99.90;;;;;;5055783;28;20059;-76
2022/01/23 08:21:43;;;;;;;4.18;3.10;;;5.20;99.90;;;;;;5060786;28;20076;-77
2022/01/23 08:24:09;;;;;;;3.85;2.75;;;5.20;99.90;;;;;;5061501;28;20041;-76
2022/01/23 08:26:34;;;;;;;3.63;2.80;;;5.30;99.90;;;;;;5060745;28;20497;-76
2022/01/23 08:29:00;;;;;;;4.13;3.17;;;5.40;99.90;;;;;;5060132;28;20119;-77
2022/01/23 08:31:26;;;;;;;3.97;2.78;;;5.30;99.90;;;;;;5033166;28;20044;-77
2022/01/23 08:33:53;;;;;;;4.35;3.08;;;5.40;99.90;;;;;;5096183;28;20908;-75
2022/01/23 08:36:19;;;;;;;;;;;5.40;99.90;;;;;;5062985;28;20044;-76
2022/01/23 08:38:45;;;;;;;3.80;2.85;;;5.40;99.90;;;;;;5061498;28;20326;-76
2022/01/23 08:43:47;;;;;;;5.53;3.15;;;5.50;99.90;;;;;;5065096;28;20514;-75
2022/01/23 08:46:13;;;;;;;3.63;2.47;;;5.50;99.90;;;;;;5060505;28;20044;-75
2022/01/23 08:48:41;;;;;;;2.92;2.38;;;5.50;99.90;;;;;;5062585;28;20044;-75
2022/01/23 08:51:07;;;;;;;4.25;3.03;;;5.50;99.90;;;;;;5059223;28;20131;-75
2022/01/23 08:53:33;;;;;;;5.43;3.53;;;5.60;99.90;;;;;;5059170;28;20061;-76
2022/01/23 08:55:59;;;;;;;5.72;3.80;;;5.60;99.90;;;;;;5059847;28;20067;-77
2022/01/23 08:58:24;;;;;;;6.65;2.97;;;5.70;99.90;;;;;;5063921;28;20480;-76
2022/01/23 09:00:50;;;;;;;4.25;3.38;;;5.70;99.90;;;;;;5065026;28;20041;-75
2022/01/23 09:03:16;;;;;;;4.10;2.95;;;5.70;99.90;;;;;;5054950;28;20047;-74
2022/01/23 09:05:41;;;;;;;4.30;3.03;;;5.70;99.90;;;;;;5073520;28;20155;-74
2022/01/23 09:08:07;;;;;;;4.88;2.80;;;5.70;99.90;;;;;;5054327;28;20048;-74
2022/01/23 09:10:40;;;;;;;3.70;2.90;;;5.80;99.90;;;;;;5058138;28;20412;-74
2022/01/23 09:13:14;;;;;;;4.35;3.17;;;5.70;99.90;;;;;;5058155;28;20040;-75
2022/01/23 09:15:39;;;;;;;4.57;2.95;;;5.80;99.90;;;;;;5061012;28;20486;-76
2022/01/23 09:18:05;;;;;;;4.50;3.28;;;5.70;99.90;;;;;;5062131;28;20043;-76
2022/01/23 09:20:31;;;;;;;4.93;3.22;;;5.70;99.90;;;;;;5059408;28;20056;-77
2022/01/23 09:22:57;;;;;;;5.47;3.13;;;5.80;99.90;;;;;;5063651;28;20032;-77
2022/01/23 09:25:23;;;;;;;3.88;2.58;;;5.90;99.90;;;;;;5056706;28;20052;-77
2022/01/23 09:27:49;;;;;;;4.03;2.70;;;6.00;99.90;;;;;;5060231;28;20119;-77
2022/01/23 09:30:20;;;;;;;3.20;2.40;;;5.90;99.90;;;;;;5062811;28;20052;-77
2022/01/23 09:32:49;;;;;;;3.60;2.50;;;6.00;99.90;;;;;;5071135;28;20491;-77
2022/01/23 09:35:16;;;;;;;2.53;2.05;;;6.00;99.90;;;;;;5045521;28;20040;-77
2022/01/23 09:37:43;;;;;;;3.20;2.13;;;6.10;99.90;;;;;;5071048;28;20060;-76
2022/01/23 09:40:09;;;;;;;2.95;2.25;;;6.20;99.90;;;;;;5044041;28;20049;-75
2022/01/23 09:42:44;;;;;;;3.03;2.50;;;6.20;99.90;;;;;;5062366;28;20032;-76
2022/01/23 09:45:12;;;;;;;3.85;2.97;;;6.30;99.90;;;;;;5054213;28;20068;-76
2022/01/23 09:47:39;;;;;;;4.13;2.92;;;6.40;99.90;;;;;;5065943;28;20044;-76
2022/01/23 09:50:05;;;;;;;;;;;6.40;99.90;;;;;;5068139;28;20141;-77
2022/01/23 09:52:34;;;;;;;3.80;2.90;;;6.40;99.90;;;;;;5038179;28;19939;-77
2022/01/23 09:55:08;;;;;;;3.33;2.50;;;6.50;99.90;;;;;;5062389;28;20048;-76
2022/01/23 09:57:36;;;;;;;3.08;2.20;;;6.50;99.90;;;;;;5066683;28;20048;-77
2022/01/23 10:00:07;;;;;;;3.58;2.40;;;6.50;99.90;;;;;;5071315;28;20094;-76
2022/01/23 10:02:33;;;;;;;3.28;2.42;;;6.40;99.90;;;;;;5061011;28;20144;-76
2022/01/23 10:04:59;;;;;;;4.07;2.38;;;6.60;99.90;;;;;;5051456;28;20070;-76
2022/01/23 10:07:25;;;;;;;2.45;2.03;;;6.60;99.90;;;;;;5070383;28;20776;-75
2022/01/23 10:10:03;;;;;;;3.92;2.42;;;6.60;99.90;;;;;;5055706;28;20048;-74
2022/01/23 10:12:29;;;;;;;2.63;2.28;;;6.60;99.90;;;;;;5059150;28;20483;-75
2022/01/23 10:14:56;;;;;;;2.60;2.20;;;6.70;99.90;;;;;;5038045;28;20437;-77
2022/01/23 10:17:22;;;;;;;3.08;2.63;;;6.60;99.90;;;;;;5067340;28;20399;-75
2022/01/23 10:19:48;;;;;;;3.00;2.20;;;6.60;99.90;;;;;;5071894;28;20364;-75
2022/01/23 10:22:15;;;;;;;2.72;2.00;;;6.70;99.90;;;;;;5071950;28;20083;-75
2022/01/23 10:24:41;;;;;;;2.92;2.40;;;6.70;99.90;;;;;;5076748;28;20041;-76
2022/01/23 10:27:07;;;;;;;3.35;2.35;;;6.80;99.90;;;;;;5076047;28;20043;-76
2022/01/23 10:29:37;;;;;;;2.95;2.10;;;6.70;99.90;;;;;;5055475;28;20044;-76
2022/01/23 10:32:25;;;;;;;2.95;1.90;;;6.80;99.90;;;;;;5079884;28;20099;-75
2022/01/23 10:34:55;;;;;;;2.42;1.85;;;6.80;99.90;;;;;;5073902;28;20129;-75
2022/01/23 10:37:33;;;;;;;3.03;2.08;;;6.90;99.90;;;;;;5072692;28;20048;-76
2022/01/23 10:40:06;;;;;;;2.35;1.95;;;6.90;99.90;;;;;;5070120;28;20131;-75
2022/01/23 10:48:01;;;;;;;2.22;1.75;;;6.90;99.90;;;;;;5070751;28;20047;-75
2022/01/23 10:50:28;;;;;;;3.53;2.10;;;7.00;99.90;;;;;;5071146;28;20033;-75
2022/01/23 10:52:59;;;;;;;2.42;1.88;;;7.00;99.90;;;;;;5070207;28;20059;-75
2022/01/23 10:55:28;;;;;;;3.15;2.03;;;7.10;99.90;;;;;;5076319;28;20048;-75
2022/01/23 10:58:02;;;;;;;2.95;2.40;;;7.10;99.90;;;;;;5075049;28;20044;-76
2022/01/23 11:00:33;;;;;;;3.75;2.40;;;7.10;99.90;;;;;;5071182;28;20040;-76
2022/01/23 11:03:11;;;;;;;2.63;2.10;;;7.10;99.90;;;;;;5072177;28;20020;-76
2022/01/23 11:05:41;;;;;;;2.30;1.80;;;7.10;99.90;;;;;;5071536;28;20048;-77
2022/01/23 11:08:24;;;;;;;2.35;1.90;;;7.10;99.90;;;;;;5071940;28;20040;-77
2022/01/23 11:10:57;;;;;;;3.20;2.22;;;7.10;99.90;;;;;;5068866;28;20052;-77
2022/01/23 11:19:15;;;;;;;4.18;2.40;;;7.20;99.90;;;;;;5088055;28;20134;-76
2022/01/23 11:21:42;;;;;;;2.50;1.90;;;7.30;99.90;;;;;;5053778;28;20036;-76
2022/01/23 11:24:08;;;;;;;2.20;1.90;;;7.20;99.90;;;;;;5071869;28;20439;-77
2022/01/23 11:26:33;;;;;;;2.88;2.08;;;7.30;99.90;;;;;;5074505;28;20052;-77
2022/01/23 11:29:15;;;;;;;2.75;2.15;;;7.20;99.90;;;;;;5072880;28;20104;-76
2022/01/23 11:31:43;;;;;;;2.92;2.10;;;7.20;99.90;;;;;;5069169;28;20060;-76
2022/01/23 11:34:11;;;;;;;2.13;1.83;;;7.30;99.90;;;;;;5070330;28;20461;-75
2022/01/23 11:36:37;;;;;;;2.05;1.80;;;7.20;99.90;;;;;;5069452;28;20333;-75
2022/01/23 11:39:35;;;;;;;2.58;1.88;;;7.20;99.90;;;;;;5070330;28;20056;-75
2022/01/23 11:56:25;;;;;;;2.28;1.70;;;7.30;99.90;;;;;;5069556;28;20045;-74
2022/01/23 11:59:09;;;;;;;2.67;1.90;;;7.40;99.90;;;;;;5060940;28;20072;-74
2022/01/23 12:01:35;;;;;;;2.83;2.15;;;7.40;99.90;;;;;;5070633;28;20072;-74
2022/01/23 12:04:14;;;;;;;3.00;2.03;;;7.40;99.90;;;;;;5056710;28;20036;-78
2022/01/23 12:06:50;;;;;;;2.15;1.90;;;7.40;99.90;;;;;;5070947;28;20452;-78
2022/01/23 12:09:18;;;;;;;3.03;2.15;;;7.50;99.90;;;;;;5071680;28;20507;-77
2022/01/23 12:12:05;;;;;;;2.70;2.00;;;7.50;99.90;;;;;;5070985;28;20044;-76
2022/01/23 12:17:17;;;;;;;2.63;1.90;;;7.50;99.90;;;;;;5064096;28;20142;-77
2022/01/23 12:19:57;;;;;;;1.90;1.42;;;7.50;99.90;;;;;;5062474;28;20040;-77
2022/01/23 12:22:40;;;;;;;1.92;1.50;;;7.40;99.90;;;;;;5046296;28;20033;-72
2022/01/23 12:25:09;;;;;;;2.17;1.60;;;7.40;99.90;;;;;;5078665;28;20063;-74
2022/01/23 12:27:34;;;;;;;2.80;1.95;;;7.40;99.90;;;;;;5069958;28;20059;-76
2022/01/23 12:30:15;;;;;;;2.00;1.73;;;7.40;99.90;;;;;;5068655;28;20052;-73
2022/01/23 12:32:41;;;;;;;2.53;1.70;;;7.50;99.90;;;;;;5069220;28;20053;-73
2022/01/23 12:35:10;;;;;;;1.60;1.50;;;7.50;99.90;;;;;;5066412;28;20055;-73
2022/01/23 12:37:55;;;;;;;2.33;1.42;;;7.50;99.90;;;;;;5069841;28;20044;-73
2022/01/23 12:40:34;;;;;;;3.03;1.40;;;7.50;99.90;;;;;;5065558;28;20052;-73
2022/01/23 12:43:09;;;;;;;2.38;1.60;;;7.60;99.90;;;;;;5069116;28;20036;-73
2022/01/23 12:45:52;;;;;;;2.28;1.65;;;7.50;99.90;;;;;;5067820;28;20056;-73
2022/01/23 12:48:31;;;;;;;2.75;1.90;;;7.60;99.90;;;;;;5063179;28;20051;-73
2022/01/23 12:50:58;;;;;;;2.03;1.80;;;7.60;99.90;;;;;;5069318;28;20135;-73
2022/01/23 12:53:46;;;;;;;3.35;2.00;;;7.60;99.90;;;;;;5047891;28;20423;-73
2022/01/23 12:56:13;;;;;;;;;;;7.60;99.90;;;;;;5064386;28;20095;-73
2022/01/23 12:58:40;;;;;;;2.70;1.50;;;7.60;99.90;;;;;;5065622;28;19991;-73
2022/01/23 13:01:14;;;;;;;2.40;1.67;;;7.60;99.90;;;;;;5070777;28;20376;-73
2022/01/23 13:03:43;;;;;;;2.65;1.90;;;7.60;99.90;;;;;;5072516;28;20072;-73
2022/01/23 13:06:11;;;;;;;3.03;1.58;;;7.60;99.90;;;;;;5072325;28;20126;-73
2022/01/23 13:08:47;;;;;;;2.38;1.65;;;7.60;99.90;;;;;;5072716;28;20380;-73
2022/01/23 13:11:51;;;;;;;2.50;1.70;;;7.60;99.90;;;;;;5064691;28;20040;-73
2022/01/23 13:14:20;;;;;;;2.28;1.58;;;7.60;99.90;;;;;;5097188;27;20052;-73
2022/01/23 13:17:14;;;;;;;3.40;2.03;;;7.60;99.90;;;;;;5071872;28;20052;-73
2022/01/23 13:26:23;;;;;;;3.58;2.17;;;7.60;99.90;;;;;;5072899;28;20082;-72
2022/01/23 13:30:54;;;;;;;2.88;2.20;;;7.40;99.90;;;;;;5072236;28;20059;-72
2022/01/23 13:33:22;;;;;;;3.35;2.58;;;7.50;99.90;;;;;;5070576;28;20056;-73
2022/01/23 13:35:53;;;;;;;3.38;2.00;;;7.40;99.90;;;;;;5071585;28;20072;-73
2022/01/23 13:38:22;;;;;;;3.80;2.47;;;7.50;99.90;;;;;;5056167;28;20446;-74
2022/01/23 13:40:58;;;;;;;3.33;1.95;;;7.40;99.90;;;;;;5071795;28;20147;-72
2022/01/23 13:51:55;;;;;;;3.22;2.47;;;7.50;99.90;;;;;;5072716;28;20494;-71
2022/01/23 13:59:53;;;;;;;3.13;2.20;;;7.50;99.90;;;;;;5067371;28;20500;-71
2022/01/23 14:02:26;;;;;;;6.40;2.90;;;7.50;99.90;;;;;;5065599;28;20388;-71
2022/01/23 14:05:08;;;;;;;3.72;2.47;;;7.40;99.90;;;;;;5058997;28;20044;-72
2022/01/23 14:07:34;;;;;;;3.22;2.67;;;7.40;99.90;;;;;;5060174;28;20094;-72
2022/01/23 14:10:20;;;;;;;3.55;2.80;;;7.40;99.90;;;;;;5063062;28;20500;-72
2022/01/23 14:12:48;;;;;;;3.75;2.70;;;7.40;99.90;;;;;;5065225;28;20048;-72
2022/01/23 14:15:23;;;;;;;5.72;2.65;;;7.30;99.90;;;;;;5054885;28;20133;-72
2022/01/23 14:18:07;;;;;;;4.20;2.60;;;7.30;99.90;;;;;;5067919;28;20146;-74
2022/01/23 14:20:38;;;;;;;4.00;2.60;;;7.30;99.90;;;;;;5072458;28;20072;-75
2022/01/23 14:23:13;;;;;;;4.70;3.22;;;7.30;99.90;;;;;;5066587;28;20044;-74
2022/01/23 14:25:54;;;;;;;4.50;2.58;;;7.30;99.90;;;;;;5059150;28;20047;-74
2022/01/23 14:28:35;;;;;;;3.03;2.38;;;7.30;99.90;;;;;;5090616;28;20181;-74
2022/01/23 14:31:15;;;;;;;4.18;2.97;;;7.30;99.90;;;;;;5042987;28;20055;-74
2022/01/23 14:33:41;;;;;;;3.92;2.97;;;7.30;99.90;;;;;;5044892;28;20048;-74
2022/01/23 14:36:19;;;;;;;4.72;3.47;;;7.30;99.90;;;;;;5089862;28;20480;-74
2022/01/23 14:39:01;;;;;;;3.85;2.75;;;7.30;99.90;;;;;;5051139;28;20433;-74
2022/01/23 14:41:33;;;;;;;5.43;3.08;;;7.20;99.90;;;;;;5062857;28;20083;-75
2022/01/23 14:44:01;;;;;;;4.15;2.90;;;7.30;99.90;;;;;;5058384;28;20091;-75
2022/01/23 14:46:26;;;;;;;4.38;3.10;;;7.20;99.90;;;;;;5074675;28;20070;-77
2022/01/23 14:48:59;;;;;;;4.07;3.10;;;7.20;99.90;;;;;;5048368;28;20506;-75
2022/01/23 14:51:27;;;;;;;4.53;2.78;;;7.20;99.90;;;;;;5061100;28;20041;-75
2022/01/23 14:53:53;;;;;;;7.07;2.92;;;7.20;99.90;;;;;;5063076;28;20106;-74
2022/01/23 14:56:20;;;;;;;4.22;2.55;;;7.20;99.90;;;;;;5045137;28;20033;-73
2022/01/23 14:58:47;;;;;;;3.53;2.60;;;7.20;99.90;;;;;;5039515;28;20045;-73
2022/01/23 15:01:15;;;;;;;3.63;2.47;;;7.20;99.90;;;;;;5064008;28;20044;-74
2022/01/23 15:03:52;;;;;;;4.05;3.10;;;7.20;99.90;;;;;;5047872;28;20447;-74
2022/01/23 15:06:19;;;;;;;4.00;2.75;;;7.20;99.90;;;;;;5087230;28;20135;-75
2022/01/23 15:08:48;;;;;;;;;;;7.20;99.90;;;;;;5031051;28;20399;-75
2022/01/23 15:11:13;;;;;;;5.22;2.90;;;7.10;99.90;;;;;;5062878;28;20295;-75
2022/01/23 15:13:39;;;;;;;4.93;2.83;;;7.10;99.90;;;;;;5058719;28;20048;-73
2022/01/23 15:16:05;;;;;;;4.70;2.83;;;7.10;99.90;;;;;;5063281;28;20040;-74
2022/01/23 15:18:31;;;;;;;2.67;1.92;;;7.10;99.90;;;;;;5064682;28;20185;-74
2022/01/23 15:20:57;;;;;;;3.83;2.83;;;7.10;99.90;;;;;;5057650;28;20048;-74
2022/01/23 15:23:22;;;;;;;4.35;3.08;;;7.10;99.90;;;;;;5060500;28;20056;-73
2022/01/23 15:25:48;;;;;;;3.13;2.53;;;7.00;99.90;;;;;;5058528;28;20421;-74
2022/01/23 15:28:15;;;;;;;3.35;2.60;;;7.00;99.90;;;;;;5060490;28;20123;-73
2022/01/23 15:30:41;;;;;;;4.63;2.88;;;7.00;99.90;;;;;;5073923;28;20041;-75
2022/01/23 15:33:08;;;;;;;3.63;2.80;;;7.00;99.90;;;;;;5060200;28;20105;-82
2022/01/23 15:35:38;;;;;;;5.03;2.75;;;6.90;99.90;;;;;;5062267;28;20048;-81
2022/01/23 15:38:04;;;;;;;4.07;2.80;;;7.00;99.90;;;;;;5069164;28;20044;-86
2022/01/23 15:40:30;;;;;;;3.15;2.30;;;6.90;99.90;;;;;;5039495;28;20349;-86
2022/01/23 15:42:56;;;;;;;4.50;2.60;;;6.90;99.90;;;;;;5064982;28;20059;-86
2022/01/23 15:45:24;;;;;;;4.38;2.28;;;6.90;99.90;;;;;;5065273;28;20040;-86
2022/01/23 15:47:50;;;;;;;3.60;2.28;;;6.90;99.90;;;;;;5070803;28;20029;-87
2022/01/23 15:50:19;;;;;;;3.22;2.55;;;6.90;99.90;;;;;;5064623;28;20037;-78
2022/01/23 15:52:45;;;;;;;3.80;2.88;;;6.90;99.90;;;;;;5052837;28;20060;-78
2022/01/23 15:55:11;;;;;;;4.13;3.20;;;6.90;99.90;;;;;;5071290;28;20128;-82
2022/01/23 15:57:38;;;;;;;3.58;2.42;;;6.80;99.90;;;;;;5057259;28;20412;-83
2022/01/23 16:00:06;;;;;;;3.10;2.38;;;6.80;99.90;;;;;;5067095;28;20119;-82
2022/01/23 16:02:32;;;;;;;4.47;2.38;;;6.80;99.90;;;;;;5087539;28;20036;-82
2022/01/23 16:04:59;;;;;;;3.55;2.47;;;6.80;99.90;;;;;;5073873;28;20048;-82
2022/01/23 16:07:26;;;;;;;2.88;2.20;;;6.80;99.90;;;;;;5055732;28;20040;-82
2022/01/23 16:09:51;;;;;;;4.15;2.30;;;6.80;99.90;;;;;;5041715;28;20044;-82
2022/01/23 16:12:18;;;;;;;3.58;2.40;;;6.80;99.90;;;;;;5065256;28;20017;-83
2022/01/23 16:14:44;;;;;;;2.95;2.10;;;6.80;99.90;;;;;;5045853;28;20028;-82
2022/01/23 16:17:10;;;;;;;;;;;6.80;99.90;;;;;;5061871;28;20037;-83
2022/01/23 16:19:36;;;;;;;4.70;2.60;;;6.70;99.90;;;;;;5072141;28;19927;-82
2022/01/23 16:22:03;;;;;;;4.03;2.22;;;6.80;99.90;;;;;;5072644;28;20036;-83
2022/01/23 16:24:28;;;;;;;3.95;2.55;;;6.70;99.90;;;;;;5072451;28;20121;-83
2022/01/23 16:26:55;;;;;;;3.35;2.08;;;6.70;99.90;;;;;;5056791;28;20036;-84
2022/01/23 16:29:23;;;;;;;4.05;2.70;;;6.70;99.90;;;;;;5051385;28;20037;-83
2022/01/23 16:31:51;;;;;;;4.05;3.10;;;6.70;99.90;;;;;;5074005;28;20040;-82
2022/01/23 16:34:17;;;;;;;4.93;3.10;;;6.70;99.90;;;;;;5055432;28;20078;-83
2022/01/23 16:36:43;;;;;;;;;;;6.70;99.90;;;;;;5060165;28;20068;-84
2022/01/23 16:39:14;;;;;;;2.70;2.30;;;6.70;99.90;;;;;;5078908;28;20367;-85
2022/01/23 16:41:41;;;;;;;4.63;2.78;;;6.70;99.90;;;;;;5056883;28;20367;-83